sensor_id;sensor_type;location;lat;lon;timestamp;P1;durP1;ratioP1;P2;durP2;ratioP2
39448;SDS011;25151;45.566;9.382;2022-12-18T00:01:27;3.13;;;2.35;;
39448;SDS011;25151;45.566;9.382;2022-12-18T00:04:31;3.47;;;2.40;;
39448;SDS011;25151;45.566;9.382;2022-12-18T00:07:32;2.95;;;2.33;;
39448;SDS011;25151;45.566;9.382;2022-12-18T00:10:33;3.10;;;2.47;;
39448;SDS011;25151;45.566;9.382;2022-12-18T00:13:34;2.03;;;1.75;;
39448;SDS011;25151;45.566;9.382;2022-12-18T00:16:36;3.00;;;2.67;;
39448;SDS011;25151;45.566;9.382;2022-12-18T00:19:37;3.15;;;2.30;;
39448;SDS011;25151;45.566;9.382;2022-12-18T00:22:38;3.95;;;2.60;;
39448;SDS011;25151;45.566;9.382;2022-12-18T00:25:39;2.80;;;2.15;;
39448;SDS011;25151;45.566;9.382;2022-12-18T00:28:40;3.22;;;2.15;;
39448;SDS011;25151;45.566;9.382;2022-12-18T00:31:41;2.55;;;2.00;;
39448;SDS011;25151;45.566;9.382;2022-12-18T00:34:43;4.70;;;2.40;;
39448;SDS011;25151;45.566;9.382;2022-12-18T00:37:44;3.50;;;2.80;;
39448;SDS011;25151;45.566;9.382;2022-12-18T00:40:45;2.92;;;2.20;;
39448;SDS011;25151;45.566;9.382;2022-12-18T00:43:46;3.03;;;2.33;;
39448;SDS011;25151;45.566;9.382;2022-12-18T00:46:47;4.18;;;2.75;;
39448;SDS011;25151;45.566;9.382;2022-12-18T00:49:48;3.45;;;2.30;;
39448;SDS011;25151;45.566;9.382;2022-12-18T00:52:49;3.30;;;2.30;;
39448;SDS011;25151;45.566;9.382;2022-12-18T00:55:50;2.97;;;2.35;;
39448;SDS011;25151;45.566;9.382;2022-12-18T00:58:51;3.22;;;2.35;;
39448;SDS011;25151;45.566;9.382;2022-12-18T01:01:52;3.03;;;2.42;;
39448;SDS011;25151;45.566;9.382;2022-12-18T01:04:55;3.67;;;2.58;;
39448;SDS011;25151;45.566;9.382;2022-12-18T01:07:56;4.60;;;2.53;;
39448;SDS011;25151;45.566;9.382;2022-12-18T01:10:57;2.92;;;2.30;;
39448;SDS011;25151;45.566;9.382;2022-12-18T01:13:59;4.03;;;2.22;;
39448;SDS011;25151;45.566;9.382;2022-12-18T01:17:00;4.13;;;2.47;;
39448;SDS011;25151;45.566;9.382;2022-12-18T01:20:03;2.85;;;2.47;;
39448;SDS011;25151;45.566;9.382;2022-12-18T01:23:05;3.10;;;2.30;;
39448;SDS011;25151;45.566;9.382;2022-12-18T01:26:09;2.60;;;2.30;;
39448;SDS011;25151;45.566;9.382;2022-12-18T01:29:12;4.57;;;2.80;;
39448;SDS011;25151;45.566;9.382;2022-12-18T01:32:13;3.53;;;2.50;;
39448;SDS011;25151;45.566;9.382;2022-12-18T01:35:14;5.10;;;2.88;;
39448;SDS011;25151;45.566;9.382;2022-12-18T01:38:16;4.03;;;2.33;;
39448;SDS011;25151;45.566;9.382;2022-12-18T01:41:19;2.85;;;2.17;;
39448;SDS011;25151;45.566;9.382;2022-12-18T01:48:03;2.67;;;2.30;;
39448;SDS011;25151;45.566;9.382;2022-12-18T01:51:07;2.83;;;2.47;;
39448;SDS011;25151;45.566;9.382;2022-12-18T01:54:10;5.72;;;2.58;;
39448;SDS011;25151;45.566;9.382;2022-12-18T01:57:11;3.45;;;2.90;;
39448;SDS011;25151;45.566;9.382;2022-12-18T02:00:14;3.53;;;2.35;;
39448;SDS011;25151;45.566;9.382;2022-12-18T02:03:18;3.05;;;2.40;;
39448;SDS011;25151;45.566;9.382;2022-12-18T02:09:33;2.72;;;2.17;;
39448;SDS011;25151;45.566;9.382;2022-12-18T02:16:10;4.15;;;2.22;;
39448;SDS011;25151;45.566;9.382;2022-12-18T02:19:21;2.95;;;2.40;;
39448;SDS011;25151;45.566;9.382;2022-12-18T02:26:21;2.95;;;2.33;;
39448;SDS011;25151;45.566;9.382;2022-12-18T02:29:16;3.63;;;2.55;;
39448;SDS011;25151;45.566;9.382;2022-12-18T02:32:27;4.60;;;2.97;;
39448;SDS011;25151;45.566;9.382;2022-12-18T02:35:31;3.65;;;2.45;;
39448;SDS011;25151;45.566;9.382;2022-12-18T02:38:34;2.60;;;2.20;;
39448;SDS011;25151;45.566;9.382;2022-12-18T02:41:36;3.05;;;2.35;;
39448;SDS011;25151;45.566;9.382;2022-12-18T02:44:42;2.90;;;2.28;;
39448;SDS011;25151;45.566;9.382;2022-12-18T02:47:48;2.70;;;2.07;;
39448;SDS011;25151;45.566;9.382;2022-12-18T02:51:03;2.80;;;2.33;;
39448;SDS011;25151;45.566;9.382;2022-12-18T02:54:08;2.50;;;1.88;;
39448;SDS011;25151;45.566;9.382;2022-12-18T03:01:06;2.63;;;2.10;;
39448;SDS011;25151;45.566;9.382;2022-12-18T03:07:33;4.47;;;2.80;;
39448;SDS011;25151;45.566;9.382;2022-12-18T03:11:00;3.15;;;2.35;;
39448;SDS011;25151;45.566;9.382;2022-12-18T03:14:04;2.35;;;1.85;;
39448;SDS011;25151;45.566;9.382;2022-12-18T03:17:09;2.78;;;2.30;;
39448;SDS011;25151;45.566;9.382;2022-12-18T03:20:16;3.13;;;2.45;;
39448;SDS011;25151;45.566;9.382;2022-12-18T03:23:21;2.92;;;2.13;;
39448;SDS011;25151;45.566;9.382;2022-12-18T03:26:26;3.25;;;2.25;;
39448;SDS011;25151;45.566;9.382;2022-12-18T03:32:43;2.65;;;2.30;;
39448;SDS011;25151;45.566;9.382;2022-12-18T03:35:52;3.50;;;2.40;;
39448;SDS011;25151;45.566;9.382;2022-12-18T03:38:53;3.50;;;2.50;;
39448;SDS011;25151;45.566;9.382;2022-12-18T03:42:15;4.22;;;2.72;;
39448;SDS011;25151;45.566;9.382;2022-12-18T03:45:27;2.97;;;1.90;;
39448;SDS011;25151;45.566;9.382;2022-12-18T03:48:47;2.60;;;2.10;;
39448;SDS011;25151;45.566;9.382;2022-12-18T03:51:54;2.92;;;2.53;;
39448;SDS011;25151;45.566;9.382;2022-12-18T03:55:20;2.65;;;2.35;;
39448;SDS011;25151;45.566;9.382;2022-12-18T03:58:24;2.95;;;1.90;;
39448;SDS011;25151;45.566;9.382;2022-12-18T04:01:31;3.42;;;2.33;;
39448;SDS011;25151;45.566;9.382;2022-12-18T04:04:36;3.25;;;2.53;;
39448;SDS011;25151;45.566;9.382;2022-12-18T04:07:39;2.50;;;2.30;;
39448;SDS011;25151;45.566;9.382;2022-12-18T04:10:41;4.03;;;2.10;;
39448;SDS011;25151;45.566;9.382;2022-12-18T04:13:42;2.90;;;2.03;;
39448;SDS011;25151;45.566;9.382;2022-12-18T04:16:43;3.28;;;2.58;;
39448;SDS011;25151;45.566;9.382;2022-12-18T04:19:44;3.72;;;2.30;;
39448;SDS011;25151;45.566;9.382;2022-12-18T04:22:45;2.72;;;2.13;;
39448;SDS011;25151;45.566;9.382;2022-12-18T04:25:47;3.00;;;2.47;;
39448;SDS011;25151;45.566;9.382;2022-12-18T04:28:48;3.15;;;2.35;;
39448;SDS011;25151;45.566;9.382;2022-12-18T04:31:49;2.75;;;2.20;;
39448;SDS011;25151;45.566;9.382;2022-12-18T04:34:50;2.50;;;2.15;;
39448;SDS011;25151;45.566;9.382;2022-12-18T04:37:51;3.25;;;2.63;;
39448;SDS011;25151;45.566;9.382;2022-12-18T04:40:55;2.50;;;2.10;;
39448;SDS011;25151;45.566;9.382;2022-12-18T04:44:00;3.03;;;2.22;;
39448;SDS011;25151;45.566;9.382;2022-12-18T04:47:04;2.50;;;2.30;;
39448;SDS011;25151;45.566;9.382;2022-12-18T04:50:05;2.85;;;2.20;;
39448;SDS011;25151;45.566;9.382;2022-12-18T04:53:07;3.55;;;2.40;;
39448;SDS011;25151;45.566;9.382;2022-12-18T04:56:12;3.83;;;2.97;;
39448;SDS011;25151;45.566;9.382;2022-12-18T04:59:15;3.75;;;2.30;;
39448;SDS011;25151;45.566;9.382;2022-12-18T05:02:15;3.45;;;2.45;;
39448;SDS011;25151;45.566;9.382;2022-12-18T05:05:16;2.80;;;2.38;;
39448;SDS011;25151;45.566;9.382;2022-12-18T05:08:17;3.47;;;2.30;;
39448;SDS011;25151;45.566;9.382;2022-12-18T05:11:18;2.70;;;2.40;;
39448;SDS011;25151;45.566;9.382;2022-12-18T05:14:19;3.10;;;2.30;;
39448;SDS011;25151;45.566;9.382;2022-12-18T05:17:20;2.97;;;2.40;;
39448;SDS011;25151;45.566;9.382;2022-12-18T05:20:21;3.05;;;2.50;;
39448;SDS011;25151;45.566;9.382;2022-12-18T05:23:23;3.90;;;2.40;;
39448;SDS011;25151;45.566;9.382;2022-12-18T05:26:25;2.85;;;2.13;;
39448;SDS011;25151;45.566;9.382;2022-12-18T05:29:26;2.95;;;2.45;;
39448;SDS011;25151;45.566;9.382;2022-12-18T05:32:26;2.72;;;2.40;;
39448;SDS011;25151;45.566;9.382;2022-12-18T05:35:27;2.92;;;2.53;;
39448;SDS011;25151;45.566;9.382;2022-12-18T05:38:29;3.00;;;2.55;;
39448;SDS011;25151;45.566;9.382;2022-12-18T05:41:30;2.95;;;2.45;;
39448;SDS011;25151;45.566;9.382;2022-12-18T05:44:31;2.50;;;2.22;;
39448;SDS011;25151;45.566;9.382;2022-12-18T05:47:32;3.72;;;2.45;;
39448;SDS011;25151;45.566;9.382;2022-12-18T05:50:34;3.05;;;2.50;;
39448;SDS011;25151;45.566;9.382;2022-12-18T05:53:37;2.50;;;2.13;;
39448;SDS011;25151;45.566;9.382;2022-12-18T05:56:38;3.50;;;2.60;;
39448;SDS011;25151;45.566;9.382;2022-12-18T05:59:39;3.13;;;2.72;;
39448;SDS011;25151;45.566;9.382;2022-12-18T06:02:41;3.13;;;2.47;;
39448;SDS011;25151;45.566;9.382;2022-12-18T06:05:43;3.10;;;2.67;;
39448;SDS011;25151;45.566;9.382;2022-12-18T06:08:46;3.53;;;2.40;;
39448;SDS011;25151;45.566;9.382;2022-12-18T06:11:48;2.85;;;2.28;;
39448;SDS011;25151;45.566;9.382;2022-12-18T06:14:52;3.15;;;2.70;;
39448;SDS011;25151;45.566;9.382;2022-12-18T06:17:54;2.92;;;2.28;;
39448;SDS011;25151;45.566;9.382;2022-12-18T06:20:56;4.15;;;2.70;;
39448;SDS011;25151;45.566;9.382;2022-12-18T06:23:57;3.22;;;2.38;;
39448;SDS011;25151;45.566;9.382;2022-12-18T06:26:59;2.75;;;2.45;;
39448;SDS011;25151;45.566;9.382;2022-12-18T06:30:00;3.35;;;2.58;;
39448;SDS011;25151;45.566;9.382;2022-12-18T06:33:02;2.88;;;2.58;;
39448;SDS011;25151;45.566;9.382;2022-12-18T06:36:07;3.13;;;2.83;;
39448;SDS011;25151;45.566;9.382;2022-12-18T06:39:10;3.88;;;2.75;;
39448;SDS011;25151;45.566;9.382;2022-12-18T06:42:11;3.03;;;2.53;;
39448;SDS011;25151;45.566;9.382;2022-12-18T06:45:17;3.72;;;3.00;;
39448;SDS011;25151;45.566;9.382;2022-12-18T06:48:19;3.55;;;2.85;;
39448;SDS011;25151;45.566;9.382;2022-12-18T06:51:21;3.08;;;2.78;;
39448;SDS011;25151;45.566;9.382;2022-12-18T06:54:22;3.00;;;2.70;;
39448;SDS011;25151;45.566;9.382;2022-12-18T06:57:24;3.05;;;2.65;;
39448;SDS011;25151;45.566;9.382;2022-12-18T07:00:25;3.60;;;2.67;;
39448;SDS011;25151;45.566;9.382;2022-12-18T07:03:26;2.95;;;2.28;;
39448;SDS011;25151;45.566;9.382;2022-12-18T07:06:27;3.80;;;2.90;;
39448;SDS011;25151;45.566;9.382;2022-12-18T07:09:28;3.65;;;3.00;;
39448;SDS011;25151;45.566;9.382;2022-12-18T07:12:29;4.13;;;3.35;;
39448;SDS011;25151;45.566;9.382;2022-12-18T07:15:29;3.58;;;3.08;;
39448;SDS011;25151;45.566;9.382;2022-12-18T07:18:30;3.70;;;3.00;;
39448;SDS011;25151;45.566;9.382;2022-12-18T07:21:31;4.03;;;3.08;;
39448;SDS011;25151;45.566;9.382;2022-12-18T07:24:33;3.63;;;2.75;;
39448;SDS011;25151;45.566;9.382;2022-12-18T07:27:35;4.05;;;3.47;;
39448;SDS011;25151;45.566;9.382;2022-12-18T07:30:36;3.40;;;3.05;;
39448;SDS011;25151;45.566;9.382;2022-12-18T07:33:38;3.78;;;3.10;;
39448;SDS011;25151;45.566;9.382;2022-12-18T07:36:39;7.88;;;3.28;;
39448;SDS011;25151;45.566;9.382;2022-12-18T07:39:40;4.60;;;3.45;;
39448;SDS011;25151;45.566;9.382;2022-12-18T07:42:42;4.30;;;3.25;;
39448;SDS011;25151;45.566;9.382;2022-12-18T07:45:43;4.18;;;3.45;;
39448;SDS011;25151;45.566;9.382;2022-12-18T07:48:44;9.13;;;3.35;;
39448;SDS011;25151;45.566;9.382;2022-12-18T07:51:45;4.95;;;3.40;;
39448;SDS011;25151;45.566;9.382;2022-12-18T07:54:49;7.05;;;3.30;;
39448;SDS011;25151;45.566;9.382;2022-12-18T07:57:50;7.32;;;3.75;;
39448;SDS011;25151;45.566;9.382;2022-12-18T08:00:50;8.52;;;4.07;;
39448;SDS011;25151;45.566;9.382;2022-12-18T08:03:52;6.85;;;3.33;;
39448;SDS011;25151;45.566;9.382;2022-12-18T08:06:53;5.10;;;3.20;;
39448;SDS011;25151;45.566;9.382;2022-12-18T08:09:54;5.60;;;3.53;;
39448;SDS011;25151;45.566;9.382;2022-12-18T08:12:55;5.25;;;3.10;;
39448;SDS011;25151;45.566;9.382;2022-12-18T08:15:57;3.88;;;3.15;;
39448;SDS011;25151;45.566;9.382;2022-12-18T08:18:59;4.35;;;3.35;;
39448;SDS011;25151;45.566;9.382;2022-12-18T08:22:00;5.13;;;3.38;;
39448;SDS011;25151;45.566;9.382;2022-12-18T08:25:01;4.95;;;3.20;;
39448;SDS011;25151;45.566;9.382;2022-12-18T08:28:03;5.55;;;3.30;;
39448;SDS011;25151;45.566;9.382;2022-12-18T08:31:04;5.28;;;3.85;;
39448;SDS011;25151;45.566;9.382;2022-12-18T08:34:04;4.68;;;3.28;;
39448;SDS011;25151;45.566;9.382;2022-12-18T08:37:05;10.13;;;3.67;;
39448;SDS011;25151;45.566;9.382;2022-12-18T08:40:06;5.40;;;3.92;;
39448;SDS011;25151;45.566;9.382;2022-12-18T08:43:08;6.35;;;3.85;;
39448;SDS011;25151;45.566;9.382;2022-12-18T08:46:32;9.23;;;4.35;;
39448;SDS011;25151;45.566;9.382;2022-12-18T08:49:37;4.10;;;3.50;;
39448;SDS011;25151;45.566;9.382;2022-12-18T08:52:37;12.32;;;4.53;;
39448;SDS011;25151;45.566;9.382;2022-12-18T08:55:38;5.20;;;4.25;;
39448;SDS011;25151;45.566;9.382;2022-12-18T08:58:39;8.40;;;4.45;;
39448;SDS011;25151;45.566;9.382;2022-12-18T09:01:43;15.68;;;4.07;;
39448;SDS011;25151;45.566;9.382;2022-12-18T09:04:46;8.55;;;4.00;;
39448;SDS011;25151;45.566;9.382;2022-12-18T09:07:47;6.45;;;4.45;;
39448;SDS011;25151;45.566;9.382;2022-12-18T09:10:49;7.10;;;4.68;;
39448;SDS011;25151;45.566;9.382;2022-12-18T09:13:50;4.72;;;4.13;;
39448;SDS011;25151;45.566;9.382;2022-12-18T09:16:51;6.50;;;4.28;;
39448;SDS011;25151;45.566;9.382;2022-12-18T09:19:52;7.38;;;4.30;;
39448;SDS011;25151;45.566;9.382;2022-12-18T09:22:53;7.75;;;3.90;;
39448;SDS011;25151;45.566;9.382;2022-12-18T09:25:58;8.18;;;4.35;;
39448;SDS011;25151;45.566;9.382;2022-12-18T09:29:01;6.85;;;4.75;;
39448;SDS011;25151;45.566;9.382;2022-12-18T09:32:03;5.88;;;4.13;;
39448;SDS011;25151;45.566;9.382;2022-12-18T09:35:04;5.90;;;4.55;;
39448;SDS011;25151;45.566;9.382;2022-12-18T09:38:05;5.80;;;4.22;;
39448;SDS011;25151;45.566;9.382;2022-12-18T09:44:19;8.32;;;4.68;;
39448;SDS011;25151;45.566;9.382;2022-12-18T09:47:23;10.02;;;5.38;;
39448;SDS011;25151;45.566;9.382;2022-12-18T09:50:33;10.35;;;5.10;;
39448;SDS011;25151;45.566;9.382;2022-12-18T09:53:38;6.53;;;4.30;;
39448;SDS011;25151;45.566;9.382;2022-12-18T09:56:44;9.23;;;4.93;;
39448;SDS011;25151;45.566;9.382;2022-12-18T09:59:47;6.07;;;4.68;;
39448;SDS011;25151;45.566;9.382;2022-12-18T10:02:56;8.18;;;4.93;;
39448;SDS011;25151;45.566;9.382;2022-12-18T10:09:57;7.63;;;5.38;;
39448;SDS011;25151;45.566;9.382;2022-12-18T10:16:16;7.38;;;4.70;;
39448;SDS011;25151;45.566;9.382;2022-12-18T10:26:00;8.20;;;4.77;;
39448;SDS011;25151;45.566;9.382;2022-12-18T10:29:12;10.55;;;4.80;;
39448;SDS011;25151;45.566;9.382;2022-12-18T10:32:18;8.32;;;5.10;;
39448;SDS011;25151;45.566;9.382;2022-12-18T10:35:22;7.38;;;5.20;;
39448;SDS011;25151;45.566;9.382;2022-12-18T10:38:29;7.90;;;5.32;;
39448;SDS011;25151;45.566;9.382;2022-12-18T10:41:31;8.00;;;4.72;;
39448;SDS011;25151;45.566;9.382;2022-12-18T10:44:32;8.65;;;5.05;;
39448;SDS011;25151;45.566;9.382;2022-12-18T10:47:33;9.25;;;5.82;;
39448;SDS011;25151;45.566;9.382;2022-12-18T10:50:35;10.50;;;5.55;;
39448;SDS011;25151;45.566;9.382;2022-12-18T10:53:37;10.75;;;5.50;;
39448;SDS011;25151;45.566;9.382;2022-12-18T10:56:41;11.43;;;6.30;;
39448;SDS011;25151;45.566;9.382;2022-12-18T10:59:54;9.40;;;5.32;;
39448;SDS011;25151;45.566;9.382;2022-12-18T11:02:57;8.27;;;5.55;;
39448;SDS011;25151;45.566;9.382;2022-12-18T11:06:14;10.75;;;6.47;;
39448;SDS011;25151;45.566;9.382;2022-12-18T11:09:20;9.00;;;5.57;;
39448;SDS011;25151;45.566;9.382;2022-12-18T11:12:22;10.30;;;5.32;;
39448;SDS011;25151;45.566;9.382;2022-12-18T11:15:27;7.85;;;5.50;;
39448;SDS011;25151;45.566;9.382;2022-12-18T11:18:32;11.25;;;5.13;;
39448;SDS011;25151;45.566;9.382;2022-12-18T11:21:38;7.72;;;5.32;;
39448;SDS011;25151;45.566;9.382;2022-12-18T11:24:41;10.40;;;6.47;;
39448;SDS011;25151;45.566;9.382;2022-12-18T11:27:46;9.00;;;6.38;;
39448;SDS011;25151;45.566;9.382;2022-12-18T11:37:27;8.50;;;5.35;;
39448;SDS011;25151;45.566;9.382;2022-12-18T11:40:33;12.18;;;5.72;;
39448;SDS011;25151;45.566;9.382;2022-12-18T11:46:59;7.03;;;5.28;;
39448;SDS011;25151;45.566;9.382;2022-12-18T11:53:44;9.27;;;6.07;;
39448;SDS011;25151;45.566;9.382;2022-12-18T12:16:45;13.65;;;5.72;;
39448;SDS011;25151;45.566;9.382;2022-12-18T12:26:12;15.82;;;6.10;;
39448;SDS011;25151;45.566;9.382;2022-12-18T12:29:22;13.57;;;6.28;;
39448;SDS011;25151;45.566;9.382;2022-12-18T12:32:31;12.40;;;5.70;;
39448;SDS011;25151;45.566;9.382;2022-12-18T12:36:22;15.30;;;6.35;;
39448;SDS011;25151;45.566;9.382;2022-12-18T12:39:40;16.35;;;5.60;;
39448;SDS011;25151;45.566;9.382;2022-12-18T12:42:47;11.73;;;5.88;;
39448;SDS011;25151;45.566;9.382;2022-12-18T12:46:11;12.25;;;6.25;;
39448;SDS011;25151;45.566;9.382;2022-12-18T12:49:15;9.88;;;5.75;;
39448;SDS011;25151;45.566;9.382;2022-12-18T12:55:46;12.70;;;5.65;;
39448;SDS011;25151;45.566;9.382;2022-12-18T13:05:30;14.93;;;5.57;;
39448;SDS011;25151;45.566;9.382;2022-12-18T13:08:58;9.60;;;6.28;;
39448;SDS011;25151;45.566;9.382;2022-12-18T13:12:03;14.55;;;6.22;;
39448;SDS011;25151;45.566;9.382;2022-12-18T13:15:42;9.98;;;5.97;;
39448;SDS011;25151;45.566;9.382;2022-12-18T13:18:48;11.45;;;5.93;;
39448;SDS011;25151;45.566;9.382;2022-12-18T13:21:54;10.32;;;6.00;;
39448;SDS011;25151;45.566;9.382;2022-12-18T13:24:56;10.18;;;5.68;;
39448;SDS011;25151;45.566;9.382;2022-12-18T13:27:58;10.70;;;5.65;;
39448;SDS011;25151;45.566;9.382;2022-12-18T13:31:04;9.95;;;5.85;;
39448;SDS011;25151;45.566;9.382;2022-12-18T13:46:58;7.43;;;5.53;;
39448;SDS011;25151;45.566;9.382;2022-12-18T13:50:25;10.40;;;5.80;;
39448;SDS011;25151;45.566;9.382;2022-12-18T13:53:29;7.80;;;5.00;;
39448;SDS011;25151;45.566;9.382;2022-12-18T13:56:34;12.70;;;5.53;;
39448;SDS011;25151;45.566;9.382;2022-12-18T13:59:44;11.60;;;5.72;;
39448;SDS011;25151;45.566;9.382;2022-12-18T14:02:45;9.20;;;5.32;;
39448;SDS011;25151;45.566;9.382;2022-12-18T14:05:46;9.05;;;5.25;;
39448;SDS011;25151;45.566;9.382;2022-12-18T14:08:54;13.18;;;5.70;;
39448;SDS011;25151;45.566;9.382;2022-12-18T14:11:55;8.15;;;4.97;;
39448;SDS011;25151;45.566;9.382;2022-12-18T14:18:25;12.45;;;5.18;;
39448;SDS011;25151;45.566;9.382;2022-12-18T14:21:32;9.57;;;5.20;;
39448;SDS011;25151;45.566;9.382;2022-12-18T14:24:35;7.60;;;4.97;;
39448;SDS011;25151;45.566;9.382;2022-12-18T14:27:37;7.55;;;4.93;;
39448;SDS011;25151;45.566;9.382;2022-12-18T14:30:43;8.95;;;5.13;;
39448;SDS011;25151;45.566;9.382;2022-12-18T14:33:45;10.38;;;5.30;;
39448;SDS011;25151;45.566;9.382;2022-12-18T14:36:53;9.35;;;5.15;;
39448;SDS011;25151;45.566;9.382;2022-12-18T14:39:56;7.45;;;4.68;;
39448;SDS011;25151;45.566;9.382;2022-12-18T14:42:59;7.70;;;4.60;;
39448;SDS011;25151;45.566;9.382;2022-12-18T14:46:01;14.40;;;5.68;;
39448;SDS011;25151;45.566;9.382;2022-12-18T14:49:21;6.07;;;4.85;;
39448;SDS011;25151;45.566;9.382;2022-12-18T14:52:27;7.47;;;4.90;;
39448;SDS011;25151;45.566;9.382;2022-12-18T14:55:31;9.25;;;5.38;;
39448;SDS011;25151;45.566;9.382;2022-12-18T14:58:33;7.30;;;4.03;;
39448;SDS011;25151;45.566;9.382;2022-12-18T15:01:37;8.32;;;4.68;;
39448;SDS011;25151;45.566;9.382;2022-12-18T15:07:47;7.78;;;4.93;;
39448;SDS011;25151;45.566;9.382;2022-12-18T15:10:50;6.20;;;4.55;;
39448;SDS011;25151;45.566;9.382;2022-12-18T15:13:53;7.90;;;4.75;;
39448;SDS011;25151;45.566;9.382;2022-12-18T15:16:54;10.73;;;4.78;;
39448;SDS011;25151;45.566;9.382;2022-12-18T15:20:00;7.30;;;4.47;;
39448;SDS011;25151;45.566;9.382;2022-12-18T15:23:02;7.60;;;4.75;;
39448;SDS011;25151;45.566;9.382;2022-12-18T15:26:07;8.63;;;4.53;;
39448;SDS011;25151;45.566;9.382;2022-12-18T15:29:20;8.25;;;4.70;;
39448;SDS011;25151;45.566;9.382;2022-12-18T15:32:22;7.47;;;5.13;;
39448;SDS011;25151;45.566;9.382;2022-12-18T15:35:23;8.57;;;5.25;;
39448;SDS011;25151;45.566;9.382;2022-12-18T15:38:25;7.68;;;4.63;;
39448;SDS011;25151;45.566;9.382;2022-12-18T15:41:26;7.00;;;4.90;;
39448;SDS011;25151;45.566;9.382;2022-12-18T15:44:28;7.28;;;4.57;;
39448;SDS011;25151;45.566;9.382;2022-12-18T15:47:29;6.18;;;4.20;;
39448;SDS011;25151;45.566;9.382;2022-12-18T15:50:30;5.97;;;4.60;;
39448;SDS011;25151;45.566;9.382;2022-12-18T15:53:33;5.50;;;4.25;;
39448;SDS011;25151;45.566;9.382;2022-12-18T15:56:35;6.63;;;4.88;;
39448;SDS011;25151;45.566;9.382;2022-12-18T15:59:55;6.30;;;4.18;;
39448;SDS011;25151;45.566;9.382;2022-12-18T16:02:59;7.20;;;4.93;;
39448;SDS011;25151;45.566;9.382;2022-12-18T16:06:00;7.28;;;5.13;;
39448;SDS011;25151;45.566;9.382;2022-12-18T16:09:02;6.13;;;4.57;;
39448;SDS011;25151;45.566;9.382;2022-12-18T16:12:05;8.57;;;4.75;;
39448;SDS011;25151;45.566;9.382;2022-12-18T16:15:17;9.05;;;4.63;;
39448;SDS011;25151;45.566;9.382;2022-12-18T16:18:21;6.90;;;4.60;;
39448;SDS011;25151;45.566;9.382;2022-12-18T16:21:33;6.22;;;4.43;;
39448;SDS011;25151;45.566;9.382;2022-12-18T16:24:38;7.13;;;4.68;;
39448;SDS011;25151;45.566;9.382;2022-12-18T16:27:42;6.88;;;4.40;;
39448;SDS011;25151;45.566;9.382;2022-12-18T16:30:49;8.25;;;4.95;;
39448;SDS011;25151;45.566;9.382;2022-12-18T16:34:11;6.75;;;4.32;;
39448;SDS011;25151;45.566;9.382;2022-12-18T16:37:27;6.80;;;4.18;;
39448;SDS011;25151;45.566;9.382;2022-12-18T16:40:31;7.03;;;4.25;;
39448;SDS011;25151;45.566;9.382;2022-12-18T16:43:56;6.70;;;4.78;;
39448;SDS011;25151;45.566;9.382;2022-12-18T16:47:02;8.13;;;4.53;;
39448;SDS011;25151;45.566;9.382;2022-12-18T16:50:07;7.03;;;4.45;;
39448;SDS011;25151;45.566;9.382;2022-12-18T16:53:10;5.13;;;3.90;;
39448;SDS011;25151;45.566;9.382;2022-12-18T16:56:16;5.03;;;4.07;;
39448;SDS011;25151;45.566;9.382;2022-12-18T16:59:22;6.70;;;3.92;;
39448;SDS011;25151;45.566;9.382;2022-12-18T17:02:28;7.75;;;4.10;;
39448;SDS011;25151;45.566;9.382;2022-12-18T17:05:34;6.90;;;4.20;;
39448;SDS011;25151;45.566;9.382;2022-12-18T17:08:39;5.32;;;4.10;;
39448;SDS011;25151;45.566;9.382;2022-12-18T17:11:49;4.90;;;4.18;;
39448;SDS011;25151;45.566;9.382;2022-12-18T17:14:52;6.57;;;4.30;;
39448;SDS011;25151;45.566;9.382;2022-12-18T17:18:05;6.32;;;3.97;;
39448;SDS011;25151;45.566;9.382;2022-12-18T17:21:09;6.88;;;4.07;;
39448;SDS011;25151;45.566;9.382;2022-12-18T17:24:16;6.63;;;3.53;;
39448;SDS011;25151;45.566;9.382;2022-12-18T17:27:19;6.53;;;3.80;;
39448;SDS011;25151;45.566;9.382;2022-12-18T17:30:26;5.25;;;3.60;;
39448;SDS011;25151;45.566;9.382;2022-12-18T17:33:31;5.95;;;3.90;;
39448;SDS011;25151;45.566;9.382;2022-12-18T17:36:42;6.65;;;4.03;;
39448;SDS011;25151;45.566;9.382;2022-12-18T17:39:50;6.15;;;4.25;;
39448;SDS011;25151;45.566;9.382;2022-12-18T17:42:54;7.80;;;3.67;;
39448;SDS011;25151;45.566;9.382;2022-12-18T17:46:02;10.10;;;3.85;;
39448;SDS011;25151;45.566;9.382;2022-12-18T17:49:08;5.60;;;3.78;;
39448;SDS011;25151;45.566;9.382;2022-12-18T17:52:19;5.55;;;3.17;;
39448;SDS011;25151;45.566;9.382;2022-12-18T17:55:22;5.55;;;4.07;;
39448;SDS011;25151;45.566;9.382;2022-12-18T17:58:26;4.43;;;3.40;;
39448;SDS011;25151;45.566;9.382;2022-12-18T18:01:33;6.43;;;3.65;;
39448;SDS011;25151;45.566;9.382;2022-12-18T18:04:35;4.95;;;4.07;;
39448;SDS011;25151;45.566;9.382;2022-12-18T18:07:36;5.18;;;3.70;;
39448;SDS011;25151;45.566;9.382;2022-12-18T18:10:38;6.93;;;4.53;;
39448;SDS011;25151;45.566;9.382;2022-12-18T18:13:40;5.53;;;4.05;;
39448;SDS011;25151;45.566;9.382;2022-12-18T18:16:59;7.88;;;4.25;;
39448;SDS011;25151;45.566;9.382;2022-12-18T18:20:01;6.05;;;3.65;;
39448;SDS011;25151;45.566;9.382;2022-12-18T18:23:03;4.70;;;3.45;;
39448;SDS011;25151;45.566;9.382;2022-12-18T18:26:06;6.68;;;3.85;;
39448;SDS011;25151;45.566;9.382;2022-12-18T18:29:12;4.88;;;3.72;;
39448;SDS011;25151;45.566;9.382;2022-12-18T18:32:15;5.10;;;3.80;;
39448;SDS011;25151;45.566;9.382;2022-12-18T18:35:17;6.15;;;3.67;;
39448;SDS011;25151;45.566;9.382;2022-12-18T18:38:19;5.68;;;3.78;;
39448;SDS011;25151;45.566;9.382;2022-12-18T18:41:20;6.82;;;4.20;;
39448;SDS011;25151;45.566;9.382;2022-12-18T18:44:23;8.80;;;4.50;;
39448;SDS011;25151;45.566;9.382;2022-12-18T18:47:27;6.70;;;3.75;;
39448;SDS011;25151;45.566;9.382;2022-12-18T18:50:29;5.30;;;4.03;;
39448;SDS011;25151;45.566;9.382;2022-12-18T18:53:38;5.63;;;4.22;;
39448;SDS011;25151;45.566;9.382;2022-12-18T18:56:41;7.13;;;3.70;;
39448;SDS011;25151;45.566;9.382;2022-12-18T18:59:43;5.28;;;4.10;;
39448;SDS011;25151;45.566;9.382;2022-12-18T19:02:45;9.18;;;4.75;;
39448;SDS011;25151;45.566;9.382;2022-12-18T19:05:53;7.07;;;4.28;;
39448;SDS011;25151;45.566;9.382;2022-12-18T19:09:03;6.82;;;4.07;;
39448;SDS011;25151;45.566;9.382;2022-12-18T19:12:09;8.13;;;4.35;;
39448;SDS011;25151;45.566;9.382;2022-12-18T19:15:33;10.05;;;4.57;;
39448;SDS011;25151;45.566;9.382;2022-12-18T19:18:38;5.47;;;3.92;;
39448;SDS011;25151;45.566;9.382;2022-12-18T19:21:42;10.73;;;4.60;;
39448;SDS011;25151;45.566;9.382;2022-12-18T19:24:58;6.57;;;4.68;;
39448;SDS011;25151;45.566;9.382;2022-12-18T19:28:04;5.10;;;3.80;;
39448;SDS011;25151;45.566;9.382;2022-12-18T19:31:15;7.07;;;3.80;;
39448;SDS011;25151;45.566;9.382;2022-12-18T19:34:22;4.65;;;3.55;;
39448;SDS011;25151;45.566;9.382;2022-12-18T19:37:26;9.02;;;3.92;;
39448;SDS011;25151;45.566;9.382;2022-12-18T19:40:28;7.00;;;4.28;;
39448;SDS011;25151;45.566;9.382;2022-12-18T19:43:30;4.85;;;3.53;;
39448;SDS011;25151;45.566;9.382;2022-12-18T19:46:35;7.72;;;4.47;;
39448;SDS011;25151;45.566;9.382;2022-12-18T19:49:39;5.45;;;4.10;;
39448;SDS011;25151;45.566;9.382;2022-12-18T19:52:40;5.43;;;3.65;;
39448;SDS011;25151;45.566;9.382;2022-12-18T19:55:41;6.43;;;4.05;;
39448;SDS011;25151;45.566;9.382;2022-12-18T19:58:42;5.03;;;3.78;;
39448;SDS011;25151;45.566;9.382;2022-12-18T20:01:45;5.32;;;4.28;;
39448;SDS011;25151;45.566;9.382;2022-12-18T20:04:47;6.93;;;3.72;;
39448;SDS011;25151;45.566;9.382;2022-12-18T20:07:50;5.90;;;3.90;;
39448;SDS011;25151;45.566;9.382;2022-12-18T20:10:53;5.80;;;4.13;;
39448;SDS011;25151;45.566;9.382;2022-12-18T20:13:55;6.93;;;3.88;;
39448;SDS011;25151;45.566;9.382;2022-12-18T20:17:00;6.78;;;4.05;;
39448;SDS011;25151;45.566;9.382;2022-12-18T20:20:04;4.50;;;3.30;;